Nearby METAR Reports

 

KSJC - San Jose, California, USA
Distance from station: NE 9mi, 14km
Updated: Wed, 27-Jan-2021 7:53pm PST
Mostly cloudy
Mostly cloudy
 Wind from SSE
Wind: SSE 15 mph , 24 km/h
Temperature: 46°F , 8°C
Wind Chill: 40°F , 4°C
Dew Point: 43°F , 6°C
Humidity: 87%
Barometer: 29.70 inHg , 1005.8 hPa
Clouds: Mostly cloudy
Visibility: 10 miles , 16 km
Cloud details: Few Clouds 100 ft
Partly cloudy 4000 ft
Mostly cloudy 7000 ft
2021/01/28 03:53 KSJC 280353Z 15013KT 10SM FEW001 SCT040 BKN070 08/06 A2970 RMK AO2 RAB03E19 SLP056 P0000 T00830056
KNUQ - Moffett Nas/Mtn, California, USA
Distance from station: N 9mi, 14km
Updated: Wed, 27-Jan-2021 7:55pm PST
Overcast
Overcast
 Wind from varies
Wind: varies 7 mph , 11 km/h, Gust: 14 mph , 22 km/h
Temperature: 48°F , 9°C
Wind Chill: 45°F , 7°C
Dew Point: 43°F , 6°C
Humidity: 82%
Barometer: 29.70 inHg , 1005.8 hPa
Clouds: Overcast
Visibility: 10 miles , 16 km
Cloud details: Overcast 2700 ft
2021/01/28 03:55 KNUQ 280355Z AUTO VRB06G12KT 10SM OVC027 09/06 A2970 RMK AO2
 
KPAO - Palo Alto, California, USA
Distance from station: NNW 14mi, 23km
Updated: Wed, 27-Jan-2021 5:47pm PST
NOT Current
Rain showers, Overcast
Rain showers, Overcast
 Wind from SE
Wind: SE 18 mph , 30 km/h, Gust: 30 mph , 48 km/h
Temperature: 46°F , 8°C
Wind Chill: 39°F , 4°C
Dew Point: 41°F , 5°C
Humidity: 82%
Barometer: 29.70 inHg , 1005.8 hPa
Summary: Rain Showers
Clouds: Overcast
Visibility: 10 miles , 16 km
Cloud details: Few Clouds 1000 ft
Overcast 3000 ft
2021/01/28 01:47 KPAO 280147Z 14016G26KT 10SM SHRA FEW010 OVC030 08/05 A2970
KRHV - San Jose/Reid, California, USA
Distance from station: ENE 12mi, 19km
Updated: Wed, 27-Jan-2021 7:55pm PST
Mostly cloudy
Mostly cloudy
 Wind from S
Wind: S 14 mph , 22 km/h, Gust: 21 mph , 33 km/h
Temperature: 46°F , 8°C
Wind Chill: 40°F , 4°C
Dew Point: 43°F , 6°C
Humidity: 87%
Barometer: 29.69 inHg , 1005.4 hPa
Clouds: Mostly cloudy
Visibility: 7 miles , 11 km
Cloud details: Partly cloudy 4000 ft
Mostly cloudy 7000 ft
2021/01/28 03:55 KRHV 280355Z 18012G18KT 7SM SCT040 BKN070 08/06 A2969 -RA
 
KOAK - Oakland, California, USA
Distance from station: NNW 31mi, 50km
Updated: Wed, 27-Jan-2021 7:53pm PST
Overcast
Overcast
 Wind from SE
Wind: SE 12 mph , 19 km/h
Temperature: 52°F , 11°C
Dew Point: 43°F , 6°C
Humidity: 72%
Barometer: 29.70 inHg , 1005.8 hPa
Clouds: Overcast
Visibility: 10 miles , 16 km
Cloud details: Few Clouds 1000 ft
Mostly cloudy 4300 ft
Overcast 6000 ft
2021/01/28 03:53 KOAK 280353Z 13010KT 10SM FEW010 BKN043 OVC060 11/06 A2970 RMK AO2 RAE05 SLP057 P0000 T01060061
KSQL - San Carlos Airpo, California, USA
Distance from station: NW 21mi, 34km
Updated: Wed, 27-Jan-2021 7:47pm PST
Overcast
Overcast
 Wind from SE
Wind: SE 17 mph , 28 km/h
Temperature: 46°F , 8°C
Wind Chill: 39°F , 4°C
Dew Point: 45°F , 7°C
Humidity: 93%
Barometer: 29.71 inHg , 1006.1 hPa
Clouds: Overcast
Visibility: 10 miles , 16 km
Cloud details: Overcast 3500 ft
2021/01/28 03:47 KSQL 280347Z 14015KT 10SM OVC035 08/07 A2971
 
KSFO - San Francisco, California, USA
Distance from station: NW 30mi, 49km
Updated: Wed, 27-Jan-2021 7:56pm PST
Overcast
Overcast
 Wind from SSE
Wind: SSE 10 mph , 17 km/h
Temperature: 48°F , 9°C
Wind Chill: 44°F , 7°C
Dew Point: 43°F , 6°C
Humidity: 82%
Barometer: 29.69 inHg , 1005.4 hPa
Clouds: Overcast
Visibility: 10 miles , 16 km
Cloud details: Few Clouds 700 ft
Mostly cloudy 6000 ft
Overcast 7500 ft
2021/01/28 03:56 KSFO 280356Z 16009KT 10SM FEW007 BKN060 OVC075 09/06 A2969 RMK AO2 RAB10E23 SLP052 P0000 T00940061
KE16 - San Martin, California, USA
Distance from station: ESE 27mi, 43km
Updated: Wed, 27-Jan-2021 7:55pm PST
Light rain, Mostly cloudy
Light rain, Mostly cloudy
 Wind from SSE
Wind: SSE 9 mph , 15 km/h
Temperature: 43°F , 6°C
Wind Chill: 38°F , 3°C
Dew Point: 43°F , 6°C
Humidity: 100%
Barometer: 29.74 inHg , 1007.1 hPa
Summary: Light rain
Clouds: Mostly cloudy
Visibility: 9 miles , 14 km
Cloud details: Few Clouds 400 ft
Partly cloudy 3800 ft
Mostly cloudy 4700 ft
2021/01/28 03:55 KE16 280355Z AUTO 16008KT 9SM -RA FEW004 SCT038 BKN047 06/06 A2974 RMK AO2
 
KWVI - Watsonville, California, USA
Distance from station: SSE 27mi, 44km
Updated: Wed, 27-Jan-2021 7:53pm PST
Overcast
Overcast
 Wind from ENE
Wind: ENE 8 mph , 13 km/h
Temperature: 46°F , 8°C
Wind Chill: 42°F , 6°C
Dew Point: 43°F , 6°C
Humidity: 87%
Barometer: 29.71 inHg , 1006.1 hPa
Clouds: Overcast
Visibility: 10 miles , 16 km
Cloud details: Few Clouds 3000 ft
Mostly cloudy 7000 ft
Overcast 9000 ft
2021/01/28 03:53 KWVI 280353Z AUTO 07007KT 10SM FEW030 BKN070 OVC090 08/06 A2971 RMK AO2 RAE22 SLP063 P0001 T00780061
KHAF - Half Moon Bay, California, USA
Distance from station: WNW 31mi, 50km
Updated: Wed, 27-Jan-2021 7:55pm PST
Overcast
Overcast
 Wind from S
Wind: S 9 mph , 15 km/h
Temperature: 50°F , 10°C
Wind Chill: 46°F , 8°C
Dew Point: 46°F , 8°C
Humidity: 88%
Barometer: 29.68 inHg , 1005.1 hPa
Clouds: Overcast
Visibility: 9 miles , 14 km
Cloud details: Few Clouds 300 ft
Overcast 6500 ft
2021/01/28 03:55 KHAF 280355Z AUTO 17008KT 9SM FEW003 OVC065 10/08 A2968 RMK AO2
 
KHWD - Hayward, California, USA
Distance from station: N 28mi, 44km
Updated: Wed, 27-Jan-2021 7:54pm PST
Light rain, Overcast
Light rain, Overcast
 Wind from SE
Wind: SE 9 mph , 15 km/h
Temperature: 46°F , 8°C
Wind Chill: 41°F , 5°C
Dew Point: 43°F , 6°C
Humidity: 87%
Barometer: 29.71 inHg , 1006.1 hPa
Summary: Light rain
Clouds: Overcast
Visibility: 4 miles , 6 km
Cloud details: Few Clouds 2700 ft
Overcast 4000 ft
2021/01/28 03:54 KHWD 280354Z 14008KT 4SM -RA FEW027 OVC040 08/06 A2971 RMK AO2 RAE0256B36 SLP069 P0001 T00830056
KLVK - Livermore, California, USA
Distance from station: NNE 31mi, 51km
Updated: Wed, 27-Jan-2021 7:53pm PST
Light rain, Overcast
Light rain, Overcast
 Wind from NNE
Wind: NNE 7 mph , 11 km/h
Temperature: 45°F , 7°C
Wind Chill: 41°F , 5°C
Dew Point: 39°F , 4°C
Humidity: 81%
Barometer: 29.69 inHg , 1005.4 hPa
Summary: Light rain
Clouds: Overcast
Visibility: 9 miles , 14 km
Cloud details: Overcast 3700 ft
2021/01/28 03:53 KLVK 280353Z AUTO 03006KT 9SM -RA OVC037 07/04 A2969 RMK AO2 SLP053 P0001 T00670044